sensor_id;sensor_type;location;lat;lon;timestamp;P1;durP1;ratioP1;P2;durP2;ratioP2
5833;SDS011;2943;48.012;10.968;2023-02-01T00:00:13;8.00;;;6.53;;
5833;SDS011;2943;48.012;10.968;2023-02-01T00:02:40;11.57;;;5.87;;
5833;SDS011;2943;48.012;10.968;2023-02-01T00:05:07;9.67;;;6.40;;
5833;SDS011;2943;48.012;10.968;2023-02-01T00:07:35;11.03;;;6.63;;
5833;SDS011;2943;48.012;10.968;2023-02-01T00:10:05;8.27;;;6.03;;
5833;SDS011;2943;48.012;10.968;2023-02-01T00:12:33;12.63;;;7.00;;
5833;SDS011;2943;48.012;10.968;2023-02-01T00:15:00;9.30;;;6.40;;
5833;SDS011;2943;48.012;10.968;2023-02-01T00:17:26;10.37;;;6.90;;
5833;SDS011;2943;48.012;10.968;2023-02-01T00:19:53;8.60;;;6.07;;
5833;SDS011;2943;48.012;10.968;2023-02-01T00:22:20;15.17;;;7.10;;
5833;SDS011;2943;48.012;10.968;2023-02-01T00:24:47;9.60;;;6.80;;
5833;SDS011;2943;48.012;10.968;2023-02-01T00:27:15;8.93;;;6.43;;
5833;SDS011;2943;48.012;10.968;2023-02-01T00:29:45;11.70;;;6.20;;
5833;SDS011;2943;48.012;10.968;2023-02-01T00:32:12;11.73;;;6.20;;
5833;SDS011;2943;48.012;10.968;2023-02-01T00:34:39;8.00;;;6.33;;
5833;SDS011;2943;48.012;10.968;2023-02-01T00:37:06;9.60;;;6.40;;
5833;SDS011;2943;48.012;10.968;2023-02-01T00:39:33;8.70;;;6.43;;
5833;SDS011;2943;48.012;10.968;2023-02-01T00:42:00;10.17;;;6.77;;
5833;SDS011;2943;48.012;10.968;2023-02-01T00:44:29;11.07;;;7.30;;
5833;SDS011;2943;48.012;10.968;2023-02-01T00:46:58;10.03;;;7.50;;
5833;SDS011;2943;48.012;10.968;2023-02-01T00:49:26;10.80;;;7.30;;
5833;SDS011;2943;48.012;10.968;2023-02-01T00:51:53;14.00;;;7.70;;
5833;SDS011;2943;48.012;10.968;2023-02-01T00:54:19;8.70;;;6.40;;
5833;SDS011;2943;48.012;10.968;2023-02-01T00:56:46;13.43;;;7.90;;
5833;SDS011;2943;48.012;10.968;2023-02-01T00:59:13;11.20;;;8.17;;
5833;SDS011;2943;48.012;10.968;2023-02-01T01:01:42;13.13;;;7.87;;
5833;SDS011;2943;48.012;10.968;2023-02-01T01:04:08;12.67;;;7.53;;
5833;SDS011;2943;48.012;10.968;2023-02-01T01:06:35;13.70;;;8.50;;
5833;SDS011;2943;48.012;10.968;2023-02-01T01:09:03;15.50;;;9.00;;
5833;SDS011;2943;48.012;10.968;2023-02-01T01:11:33;17.63;;;8.60;;
5833;SDS011;2943;48.012;10.968;2023-02-01T01:14:01;14.70;;;9.53;;
5833;SDS011;2943;48.012;10.968;2023-02-01T01:16:30;12.50;;;8.97;;
5833;SDS011;2943;48.012;10.968;2023-02-01T01:18:59;13.10;;;9.13;;
5833;SDS011;2943;48.012;10.968;2023-02-01T01:21:26;15.20;;;9.70;;
5833;SDS011;2943;48.012;10.968;2023-02-01T01:23:53;11.60;;;9.27;;
5833;SDS011;2943;48.012;10.968;2023-02-01T01:26:21;14.83;;;9.57;;
5833;SDS011;2943;48.012;10.968;2023-02-01T01:28:49;14.80;;;9.70;;
5833;SDS011;2943;48.012;10.968;2023-02-01T01:31:17;17.67;;;10.40;;
5833;SDS011;2943;48.012;10.968;2023-02-01T01:33:47;14.73;;;9.53;;
5833;SDS011;2943;48.012;10.968;2023-02-01T01:36:16;15.60;;;10.00;;
5833;SDS011;2943;48.012;10.968;2023-02-01T01:38:43;14.60;;;9.47;;
5833;SDS011;2943;48.012;10.968;2023-02-01T01:41:13;14.87;;;9.20;;
5833;SDS011;2943;48.012;10.968;2023-02-01T01:43:47;13.90;;;9.07;;
5833;SDS011;2943;48.012;10.968;2023-02-01T01:46:17;17.00;;;9.77;;
5833;SDS011;2943;48.012;10.968;2023-02-01T01:48:45;21.37;;;9.63;;
5833;SDS011;2943;48.012;10.968;2023-02-01T01:51:18;18.00;;;9.70;;
5833;SDS011;2943;48.012;10.968;2023-02-01T01:53:48;16.10;;;9.67;;
5833;SDS011;2943;48.012;10.968;2023-02-01T01:56:24;22.77;;;9.77;;
5833;SDS011;2943;48.012;10.968;2023-02-01T01:58:52;16.50;;;10.63;;
5833;SDS011;2943;48.012;10.968;2023-02-01T02:01:19;17.07;;;10.37;;
5833;SDS011;2943;48.012;10.968;2023-02-01T02:03:46;16.60;;;10.20;;
5833;SDS011;2943;48.012;10.968;2023-02-01T02:06:17;16.90;;;10.90;;
5833;SDS011;2943;48.012;10.968;2023-02-01T02:08:53;22.30;;;11.30;;
5833;SDS011;2943;48.012;10.968;2023-02-01T02:11:20;16.40;;;9.80;;
5833;SDS011;2943;48.012;10.968;2023-02-01T02:13:48;17.23;;;10.20;;
5833;SDS011;2943;48.012;10.968;2023-02-01T02:16:24;17.33;;;10.00;;
5833;SDS011;2943;48.012;10.968;2023-02-01T02:22:47;12.90;;;8.87;;
5833;SDS011;2943;48.012;10.968;2023-02-01T02:26:05;19.03;;;10.40;;
5833;SDS011;2943;48.012;10.968;2023-02-01T02:35:27;12.70;;;8.93;;
5833;SDS011;2943;48.012;10.968;2023-02-01T02:38:02;15.23;;;8.90;;
5833;SDS011;2943;48.012;10.968;2023-02-01T02:40:39;14.50;;;9.00;;
5833;SDS011;2943;48.012;10.968;2023-02-01T02:43:15;13.37;;;9.00;;
5833;SDS011;2943;48.012;10.968;2023-02-01T02:46:04;13.50;;;9.00;;
5833;SDS011;2943;48.012;10.968;2023-02-01T02:48:59;15.27;;;9.07;;
5833;SDS011;2943;48.012;10.968;2023-02-01T02:51:30;12.37;;;8.33;;
5833;SDS011;2943;48.012;10.968;2023-02-01T02:54:18;12.37;;;8.53;;
5833;SDS011;2943;48.012;10.968;2023-02-01T02:57:06;14.00;;;8.13;;
5833;SDS011;2943;48.012;10.968;2023-02-01T02:59:54;12.23;;;8.43;;
5833;SDS011;2943;48.012;10.968;2023-02-01T03:02:40;13.00;;;9.10;;
5833;SDS011;2943;48.012;10.968;2023-02-01T03:05:25;11.40;;;8.43;;
5833;SDS011;2943;48.012;10.968;2023-02-01T03:08:00;14.67;;;8.80;;
5833;SDS011;2943;48.012;10.968;2023-02-01T03:10:33;11.43;;;8.13;;
5833;SDS011;2943;48.012;10.968;2023-02-01T03:13:06;12.93;;;8.80;;
5833;SDS011;2943;48.012;10.968;2023-02-01T03:15:38;12.57;;;8.30;;
5833;SDS011;2943;48.012;10.968;2023-02-01T03:18:11;13.40;;;8.13;;
5833;SDS011;2943;48.012;10.968;2023-02-01T03:20:43;14.23;;;7.90;;
5833;SDS011;2943;48.012;10.968;2023-02-01T03:23:14;12.83;;;8.97;;
5833;SDS011;2943;48.012;10.968;2023-02-01T03:25:44;13.73;;;8.60;;
5833;SDS011;2943;48.012;10.968;2023-02-01T03:28:14;12.37;;;8.73;;
5833;SDS011;2943;48.012;10.968;2023-02-01T03:30:46;12.07;;;9.03;;
5833;SDS011;2943;48.012;10.968;2023-02-01T03:33:15;11.67;;;8.23;;
5833;SDS011;2943;48.012;10.968;2023-02-01T03:35:52;10.93;;;7.33;;
5833;SDS011;2943;48.012;10.968;2023-02-01T03:38:25;15.00;;;9.00;;
5833;SDS011;2943;48.012;10.968;2023-02-01T03:40:57;13.97;;;8.73;;
5833;SDS011;2943;48.012;10.968;2023-02-01T03:43:29;12.10;;;8.40;;
5833;SDS011;2943;48.012;10.968;2023-02-01T03:46:02;13.87;;;9.03;;
5833;SDS011;2943;48.012;10.968;2023-02-01T03:48:35;20.80;;;8.47;;
5833;SDS011;2943;48.012;10.968;2023-02-01T03:51:04;12.53;;;9.13;;
5833;SDS011;2943;48.012;10.968;2023-02-01T03:53:34;12.13;;;8.17;;
5833;SDS011;2943;48.012;10.968;2023-02-01T03:56:03;11.77;;;8.07;;
5833;SDS011;2943;48.012;10.968;2023-02-01T03:58:30;11.90;;;9.00;;
5833;SDS011;2943;48.012;10.968;2023-02-01T04:00:57;13.47;;;8.23;;
5833;SDS011;2943;48.012;10.968;2023-02-01T04:03:26;14.70;;;8.10;;
5833;SDS011;2943;48.012;10.968;2023-02-01T04:05:53;11.57;;;8.30;;
5833;SDS011;2943;48.012;10.968;2023-02-01T04:08:22;11.57;;;8.40;;
5833;SDS011;2943;48.012;10.968;2023-02-01T04:10:51;13.83;;;8.70;;
5833;SDS011;2943;48.012;10.968;2023-02-01T04:13:18;10.33;;;7.60;;
5833;SDS011;2943;48.012;10.968;2023-02-01T04:15:46;13.03;;;8.10;;
5833;SDS011;2943;48.012;10.968;2023-02-01T04:18:14;12.80;;;8.30;;
5833;SDS011;2943;48.012;10.968;2023-02-01T04:20:42;11.67;;;8.53;;
5833;SDS011;2943;48.012;10.968;2023-02-01T04:23:09;14.93;;;8.00;;
5833;SDS011;2943;48.012;10.968;2023-02-01T04:25:38;13.73;;;8.53;;
5833;SDS011;2943;48.012;10.968;2023-02-01T04:28:06;14.07;;;9.70;;
5833;SDS011;2943;48.012;10.968;2023-02-01T04:30:34;13.47;;;8.77;;
5833;SDS011;2943;48.012;10.968;2023-02-01T04:33:00;11.50;;;8.50;;
5833;SDS011;2943;48.012;10.968;2023-02-01T04:35:28;10.97;;;8.23;;
5833;SDS011;2943;48.012;10.968;2023-02-01T04:37:55;12.10;;;8.33;;
5833;SDS011;2943;48.012;10.968;2023-02-01T04:40:22;12.43;;;8.47;;
5833;SDS011;2943;48.012;10.968;2023-02-01T04:42:49;10.40;;;8.33;;
5833;SDS011;2943;48.012;10.968;2023-02-01T04:45:17;11.73;;;8.23;;
5833;SDS011;2943;48.012;10.968;2023-02-01T04:47:44;14.60;;;8.63;;
5833;SDS011;2943;48.012;10.968;2023-02-01T04:50:11;14.10;;;8.67;;
5833;SDS011;2943;48.012;10.968;2023-02-01T04:52:37;18.30;;;8.07;;
5833;SDS011;2943;48.012;10.968;2023-02-01T04:55:04;11.97;;;8.23;;
5833;SDS011;2943;48.012;10.968;2023-02-01T04:57:32;15.40;;;8.60;;
5833;SDS011;2943;48.012;10.968;2023-02-01T04:59:59;13.17;;;8.90;;
5833;SDS011;2943;48.012;10.968;2023-02-01T05:02:27;11.30;;;8.33;;
5833;SDS011;2943;48.012;10.968;2023-02-01T05:04:54;11.10;;;8.43;;
5833;SDS011;2943;48.012;10.968;2023-02-01T05:07:20;10.63;;;7.67;;
5833;SDS011;2943;48.012;10.968;2023-02-01T05:09:47;11.90;;;8.70;;
5833;SDS011;2943;48.012;10.968;2023-02-01T05:12:14;12.73;;;7.83;;
5833;SDS011;2943;48.012;10.968;2023-02-01T05:14:58;14.60;;;8.70;;
5833;SDS011;2943;48.012;10.968;2023-02-01T05:17:27;10.97;;;8.60;;
5833;SDS011;2943;48.012;10.968;2023-02-01T05:19:53;12.70;;;8.13;;
5833;SDS011;2943;48.012;10.968;2023-02-01T05:22:20;12.40;;;8.63;;
5833;SDS011;2943;48.012;10.968;2023-02-01T05:24:47;13.20;;;8.57;;
5833;SDS011;2943;48.012;10.968;2023-02-01T05:27:14;13.60;;;8.50;;
5833;SDS011;2943;48.012;10.968;2023-02-01T05:29:41;11.73;;;8.50;;
5833;SDS011;2943;48.012;10.968;2023-02-01T05:32:09;12.50;;;9.33;;
5833;SDS011;2943;48.012;10.968;2023-02-01T05:34:41;11.17;;;8.13;;
5833;SDS011;2943;48.012;10.968;2023-02-01T05:37:07;14.60;;;9.60;;
5833;SDS011;2943;48.012;10.968;2023-02-01T05:39:34;14.30;;;8.93;;
5833;SDS011;2943;48.012;10.968;2023-02-01T05:42:01;14.27;;;8.27;;
5833;SDS011;2943;48.012;10.968;2023-02-01T05:44:28;14.60;;;9.47;;
5833;SDS011;2943;48.012;10.968;2023-02-01T05:46:54;14.20;;;9.00;;
5833;SDS011;2943;48.012;10.968;2023-02-01T05:49:21;13.40;;;8.80;;
5833;SDS011;2943;48.012;10.968;2023-02-01T05:51:49;10.93;;;8.83;;
5833;SDS011;2943;48.012;10.968;2023-02-01T05:54:16;12.50;;;8.00;;
5833;SDS011;2943;48.012;10.968;2023-02-01T05:56:43;13.70;;;9.03;;
5833;SDS011;2943;48.012;10.968;2023-02-01T05:59:10;14.90;;;8.73;;
5833;SDS011;2943;48.012;10.968;2023-02-01T06:01:37;16.07;;;9.53;;
5833;SDS011;2943;48.012;10.968;2023-02-01T06:04:04;12.60;;;8.87;;
5833;SDS011;2943;48.012;10.968;2023-02-01T06:06:32;13.93;;;9.07;;
5833;SDS011;2943;48.012;10.968;2023-02-01T06:09:02;11.73;;;8.27;;
5833;SDS011;2943;48.012;10.968;2023-02-01T06:11:30;16.50;;;8.53;;
5833;SDS011;2943;48.012;10.968;2023-02-01T06:13:57;10.40;;;7.80;;
5833;SDS011;2943;48.012;10.968;2023-02-01T06:16:24;12.03;;;7.33;;
5833;SDS011;2943;48.012;10.968;2023-02-01T06:18:50;13.27;;;8.23;;
5833;SDS011;2943;48.012;10.968;2023-02-01T06:21:17;16.27;;;9.13;;
5833;SDS011;2943;48.012;10.968;2023-02-01T06:23:48;12.37;;;7.80;;
5833;SDS011;2943;48.012;10.968;2023-02-01T06:26:16;12.53;;;8.30;;
5833;SDS011;2943;48.012;10.968;2023-02-01T06:28:43;10.73;;;7.93;;
5833;SDS011;2943;48.012;10.968;2023-02-01T06:31:10;10.60;;;7.60;;
5833;SDS011;2943;48.012;10.968;2023-02-01T06:33:37;11.93;;;7.73;;
5833;SDS011;2943;48.012;10.968;2023-02-01T06:36:05;9.60;;;7.73;;
5833;SDS011;2943;48.012;10.968;2023-02-01T06:38:34;9.93;;;6.87;;
5833;SDS011;2943;48.012;10.968;2023-02-01T06:41:01;14.93;;;7.53;;
5833;SDS011;2943;48.012;10.968;2023-02-01T06:43:31;12.80;;;7.67;;
5833;SDS011;2943;48.012;10.968;2023-02-01T06:45:59;12.43;;;7.80;;
5833;SDS011;2943;48.012;10.968;2023-02-01T06:48:27;10.20;;;7.37;;
5833;SDS011;2943;48.012;10.968;2023-02-01T06:50:54;8.53;;;6.93;;
5833;SDS011;2943;48.012;10.968;2023-02-01T06:53:21;10.90;;;7.30;;
5833;SDS011;2943;48.012;10.968;2023-02-01T06:55:52;10.80;;;6.83;;
5833;SDS011;2943;48.012;10.968;2023-02-01T06:58:19;9.30;;;7.40;;
5833;SDS011;2943;48.012;10.968;2023-02-01T07:00:47;10.97;;;7.40;;
5833;SDS011;2943;48.012;10.968;2023-02-01T07:03:15;9.03;;;6.90;;
5833;SDS011;2943;48.012;10.968;2023-02-01T07:05:42;19.30;;;9.00;;
5833;SDS011;2943;48.012;10.968;2023-02-01T07:08:09;9.27;;;6.80;;
5833;SDS011;2943;48.012;10.968;2023-02-01T07:10:35;9.70;;;6.00;;
5833;SDS011;2943;48.012;10.968;2023-02-01T07:13:03;9.00;;;7.03;;
5833;SDS011;2943;48.012;10.968;2023-02-01T07:15:30;9.67;;;6.60;;
5833;SDS011;2943;48.012;10.968;2023-02-01T07:17:58;11.90;;;6.43;;
5833;SDS011;2943;48.012;10.968;2023-02-01T07:20:25;10.20;;;6.73;;
5833;SDS011;2943;48.012;10.968;2023-02-01T07:22:54;8.97;;;6.60;;
5833;SDS011;2943;48.012;10.968;2023-02-01T07:25:22;12.13;;;7.30;;
5833;SDS011;2943;48.012;10.968;2023-02-01T07:27:49;9.07;;;6.47;;
5833;SDS011;2943;48.012;10.968;2023-02-01T07:30:18;8.87;;;6.63;;
5833;SDS011;2943;48.012;10.968;2023-02-01T07:32:45;8.60;;;6.80;;
5833;SDS011;2943;48.012;10.968;2023-02-01T07:35:13;8.60;;;6.83;;
5833;SDS011;2943;48.012;10.968;2023-02-01T07:37:40;9.83;;;6.17;;
5833;SDS011;2943;48.012;10.968;2023-02-01T07:40:08;9.07;;;6.70;;
5833;SDS011;2943;48.012;10.968;2023-02-01T07:42:36;9.10;;;5.87;;
5833;SDS011;2943;48.012;10.968;2023-02-01T07:45:04;8.30;;;5.80;;
5833;SDS011;2943;48.012;10.968;2023-02-01T07:47:31;8.03;;;6.00;;
5833;SDS011;2943;48.012;10.968;2023-02-01T07:49:58;6.57;;;5.83;;
5833;SDS011;2943;48.012;10.968;2023-02-01T07:52:28;9.10;;;5.70;;
5833;SDS011;2943;48.012;10.968;2023-02-01T07:54:56;10.60;;;6.10;;
5833;SDS011;2943;48.012;10.968;2023-02-01T07:57:24;10.80;;;6.40;;
5833;SDS011;2943;48.012;10.968;2023-02-01T07:59:52;8.27;;;5.67;;
5833;SDS011;2943;48.012;10.968;2023-02-01T08:02:36;9.37;;;6.17;;
5833;SDS011;2943;48.012;10.968;2023-02-01T08:05:04;8.83;;;6.10;;
5833;SDS011;2943;48.012;10.968;2023-02-01T08:07:37;8.53;;;5.97;;
5833;SDS011;2943;48.012;10.968;2023-02-01T08:10:06;8.17;;;6.50;;
5833;SDS011;2943;48.012;10.968;2023-02-01T08:12:35;8.30;;;5.83;;
5833;SDS011;2943;48.012;10.968;2023-02-01T08:15:03;7.17;;;5.80;;
5833;SDS011;2943;48.012;10.968;2023-02-01T08:17:32;7.57;;;6.20;;
5833;SDS011;2943;48.012;10.968;2023-02-01T08:19:59;6.90;;;5.60;;
5833;SDS011;2943;48.012;10.968;2023-02-01T08:22:30;11.30;;;6.37;;
5833;SDS011;2943;48.012;10.968;2023-02-01T08:24:59;10.57;;;5.80;;
5833;SDS011;2943;48.012;10.968;2023-02-01T08:27:26;8.60;;;6.67;;
5833;SDS011;2943;48.012;10.968;2023-02-01T08:29:56;8.93;;;5.40;;
5833;SDS011;2943;48.012;10.968;2023-02-01T08:32:24;7.53;;;5.10;;
5833;SDS011;2943;48.012;10.968;2023-02-01T08:34:51;7.70;;;5.47;;
5833;SDS011;2943;48.012;10.968;2023-02-01T08:37:19;7.70;;;5.97;;
5833;SDS011;2943;48.012;10.968;2023-02-01T08:39:47;9.50;;;5.80;;
5833;SDS011;2943;48.012;10.968;2023-02-01T08:42:17;9.73;;;6.07;;
5833;SDS011;2943;48.012;10.968;2023-02-01T08:45:01;7.97;;;6.20;;
5833;SDS011;2943;48.012;10.968;2023-02-01T08:47:29;8.37;;;5.40;;
5833;SDS011;2943;48.012;10.968;2023-02-01T08:49:56;11.50;;;6.33;;
5833;SDS011;2943;48.012;10.968;2023-02-01T08:52:23;9.10;;;5.63;;
5833;SDS011;2943;48.012;10.968;2023-02-01T08:54:50;10.83;;;6.43;;
5833;SDS011;2943;48.012;10.968;2023-02-01T08:57:18;8.00;;;6.10;;
5833;SDS011;2943;48.012;10.968;2023-02-01T08:59:45;10.00;;;6.90;;
5833;SDS011;2943;48.012;10.968;2023-02-01T09:02:13;8.77;;;6.27;;
5833;SDS011;2943;48.012;10.968;2023-02-01T09:04:40;9.37;;;6.40;;
5833;SDS011;2943;48.012;10.968;2023-02-01T09:07:07;16.13;;;5.80;;
5833;SDS011;2943;48.012;10.968;2023-02-01T09:09:34;9.90;;;6.70;;
5833;SDS011;2943;48.012;10.968;2023-02-01T09:12:01;9.17;;;6.23;;
5833;SDS011;2943;48.012;10.968;2023-02-01T09:14:31;9.87;;;6.10;;
5833;SDS011;2943;48.012;10.968;2023-02-01T09:16:58;10.10;;;6.57;;
5833;SDS011;2943;48.012;10.968;2023-02-01T09:19:25;10.63;;;6.30;;
5833;SDS011;2943;48.012;10.968;2023-02-01T09:21:52;8.30;;;6.20;;
5833;SDS011;2943;48.012;10.968;2023-02-01T09:24:19;7.73;;;6.27;;
5833;SDS011;2943;48.012;10.968;2023-02-01T09:26:46;9.57;;;6.33;;
5833;SDS011;2943;48.012;10.968;2023-02-01T09:29:12;9.07;;;5.87;;
5833;SDS011;2943;48.012;10.968;2023-02-01T09:31:41;8.50;;;6.50;;
5833;SDS011;2943;48.012;10.968;2023-02-01T09:34:07;6.77;;;5.10;;
5833;SDS011;2943;48.012;10.968;2023-02-01T09:36:34;10.37;;;6.60;;
5833;SDS011;2943;48.012;10.968;2023-02-01T09:39:01;8.70;;;6.90;;
5833;SDS011;2943;48.012;10.968;2023-02-01T09:41:37;8.67;;;6.07;;
5833;SDS011;2943;48.012;10.968;2023-02-01T09:44:16;8.77;;;6.80;;
5833;SDS011;2943;48.012;10.968;2023-02-01T09:46:53;10.80;;;7.30;;
5833;SDS011;2943;48.012;10.968;2023-02-01T09:49:23;8.50;;;7.00;;
5833;SDS011;2943;48.012;10.968;2023-02-01T09:51:54;7.57;;;5.97;;
5833;SDS011;2943;48.012;10.968;2023-02-01T09:54:23;10.57;;;7.13;;
5833;SDS011;2943;48.012;10.968;2023-02-01T09:56:53;15.93;;;7.30;;
5833;SDS011;2943;48.012;10.968;2023-02-01T09:59:26;8.33;;;5.80;;
5833;SDS011;2943;48.012;10.968;2023-02-01T10:02:02;8.33;;;6.70;;
5833;SDS011;2943;48.012;10.968;2023-02-01T10:04:31;15.80;;;6.70;;
5833;SDS011;2943;48.012;10.968;2023-02-01T10:07:02;9.90;;;6.83;;
5833;SDS011;2943;48.012;10.968;2023-02-01T10:09:43;6.60;;;5.90;;
5833;SDS011;2943;48.012;10.968;2023-02-01T10:12:23;14.10;;;7.17;;
5833;SDS011;2943;48.012;10.968;2023-02-01T10:18:26;10.23;;;6.40;;
5833;SDS011;2943;48.012;10.968;2023-02-01T10:21:17;10.83;;;6.17;;
5833;SDS011;2943;48.012;10.968;2023-02-01T10:23:57;7.10;;;6.20;;
5833;SDS011;2943;48.012;10.968;2023-02-01T10:26:36;9.60;;;7.37;;
5833;SDS011;2943;48.012;10.968;2023-02-01T10:29:11;11.23;;;7.23;;
5833;SDS011;2943;48.012;10.968;2023-02-01T10:31:43;7.57;;;5.60;;
5833;SDS011;2943;48.012;10.968;2023-02-01T10:34:14;16.03;;;6.27;;
5833;SDS011;2943;48.012;10.968;2023-02-01T10:36:50;9.30;;;6.30;;
5833;SDS011;2943;48.012;10.968;2023-02-01T10:39:20;8.80;;;6.37;;
5833;SDS011;2943;48.012;10.968;2023-02-01T10:41:47;8.87;;;6.37;;
5833;SDS011;2943;48.012;10.968;2023-02-01T10:44:16;7.30;;;5.30;;
5833;SDS011;2943;48.012;10.968;2023-02-01T10:46:47;9.63;;;5.83;;
5833;SDS011;2943;48.012;10.968;2023-02-01T10:49:17;7.00;;;5.50;;
5833;SDS011;2943;48.012;10.968;2023-02-01T10:51:47;9.43;;;6.67;;
5833;SDS011;2943;48.012;10.968;2023-02-01T10:54:19;8.30;;;6.27;;
5833;SDS011;2943;48.012;10.968;2023-02-01T10:56:48;14.33;;;5.80;;
5833;SDS011;2943;48.012;10.968;2023-02-01T10:59:16;6.30;;;5.20;;
5833;SDS011;2943;48.012;10.968;2023-02-01T11:01:45;9.00;;;5.40;;
5833;SDS011;2943;48.012;10.968;2023-02-01T11:04:12;7.10;;;5.80;;
5833;SDS011;2943;48.012;10.968;2023-02-01T11:06:43;7.83;;;5.70;;
5833;SDS011;2943;48.012;10.968;2023-02-01T11:09:18;10.67;;;5.80;;
5833;SDS011;2943;48.012;10.968;2023-02-01T11:11:53;6.87;;;4.90;;
5833;SDS011;2943;48.012;10.968;2023-02-01T11:14:26;6.93;;;6.10;;
5833;SDS011;2943;48.012;10.968;2023-02-01T11:17:00;10.30;;;6.83;;
5833;SDS011;2943;48.012;10.968;2023-02-01T11:19:28;8.90;;;6.10;;
5833;SDS011;2943;48.012;10.968;2023-02-01T11:21:57;7.13;;;5.80;;
5833;SDS011;2943;48.012;10.968;2023-02-01T11:24:26;7.13;;;5.67;;
5833;SDS011;2943;48.012;10.968;2023-02-01T11:26:55;8.43;;;5.47;;
5833;SDS011;2943;48.012;10.968;2023-02-01T11:29:23;6.43;;;5.20;;
5833;SDS011;2943;48.012;10.968;2023-02-01T11:31:54;9.97;;;5.30;;
5833;SDS011;2943;48.012;10.968;2023-02-01T11:34:24;8.83;;;5.70;;
5833;SDS011;2943;48.012;10.968;2023-02-01T11:36:53;7.73;;;5.37;;
5833;SDS011;2943;48.012;10.968;2023-02-01T11:39:28;10.80;;;5.87;;
5833;SDS011;2943;48.012;10.968;2023-02-01T11:41:58;8.80;;;5.60;;
5833;SDS011;2943;48.012;10.968;2023-02-01T11:44:30;9.97;;;6.07;;
5833;SDS011;2943;48.012;10.968;2023-02-01T11:47:12;8.80;;;6.17;;
5833;SDS011;2943;48.012;10.968;2023-02-01T11:49:49;6.47;;;5.40;;
5833;SDS011;2943;48.012;10.968;2023-02-01T11:52:21;8.73;;;5.70;;
5833;SDS011;2943;48.012;10.968;2023-02-01T11:55:05;6.83;;;5.30;;
5833;SDS011;2943;48.012;10.968;2023-02-01T11:57:48;8.70;;;6.20;;
5833;SDS011;2943;48.012;10.968;2023-02-01T12:00:32;7.43;;;5.53;;
5833;SDS011;2943;48.012;10.968;2023-02-01T12:06:30;11.07;;;6.00;;
5833;SDS011;2943;48.012;10.968;2023-02-01T12:09:11;7.17;;;5.63;;
5833;SDS011;2943;48.012;10.968;2023-02-01T12:11:53;6.60;;;4.80;;
5833;SDS011;2943;48.012;10.968;2023-02-01T12:14:32;7.22;;;5.43;;
5833;SDS011;2943;48.012;10.968;2023-02-01T12:17:18;7.70;;;5.73;;
5833;SDS011;2943;48.012;10.968;2023-02-01T12:22:57;8.40;;;4.97;;
5833;SDS011;2943;48.012;10.968;2023-02-01T12:28:32;7.80;;;5.37;;
5833;SDS011;2943;48.012;10.968;2023-02-01T12:34:00;9.33;;;6.10;;
5833;SDS011;2943;48.012;10.968;2023-02-01T12:36:41;6.50;;;4.53;;
5833;SDS011;2943;48.012;10.968;2023-02-01T12:39:17;7.60;;;4.80;;
5833;SDS011;2943;48.012;10.968;2023-02-01T12:41:55;5.80;;;4.73;;
5833;SDS011;2943;48.012;10.968;2023-02-01T12:44:38;5.60;;;4.80;;
5833;SDS011;2943;48.012;10.968;2023-02-01T12:47:12;5.83;;;4.50;;
5833;SDS011;2943;48.012;10.968;2023-02-01T12:49:46;6.97;;;4.57;;
5833;SDS011;2943;48.012;10.968;2023-02-01T12:52:20;8.37;;;4.80;;
5833;SDS011;2943;48.012;10.968;2023-02-01T12:54:53;6.13;;;4.40;;
5833;SDS011;2943;48.012;10.968;2023-02-01T12:57:26;5.10;;;4.30;;
5833;SDS011;2943;48.012;10.968;2023-02-01T13:00:00;5.40;;;4.47;;
5833;SDS011;2943;48.012;10.968;2023-02-01T13:02:35;6.40;;;4.77;;
5833;SDS011;2943;48.012;10.968;2023-02-01T13:05:11;8.00;;;4.90;;
5833;SDS011;2943;48.012;10.968;2023-02-01T13:07:42;7.60;;;5.17;;
5833;SDS011;2943;48.012;10.968;2023-02-01T13:10:15;6.00;;;5.10;;
5833;SDS011;2943;48.012;10.968;2023-02-01T13:12:50;6.87;;;4.40;;
5833;SDS011;2943;48.012;10.968;2023-02-01T13:15:21;8.57;;;5.10;;
5833;SDS011;2943;48.012;10.968;2023-02-01T13:17:51;7.23;;;4.40;;
5833;SDS011;2943;48.012;10.968;2023-02-01T13:20:22;6.37;;;4.60;;
5833;SDS011;2943;48.012;10.968;2023-02-01T13:22:54;6.57;;;5.37;;
5833;SDS011;2943;48.012;10.968;2023-02-01T13:25:27;7.20;;;4.93;;
5833;SDS011;2943;48.012;10.968;2023-02-01T13:28:03;9.60;;;5.10;;
5833;SDS011;2943;48.012;10.968;2023-02-01T13:30:38;7.00;;;5.13;;
5833;SDS011;2943;48.012;10.968;2023-02-01T13:39:23;7.17;;;4.43;;
5833;SDS011;2943;48.012;10.968;2023-02-01T13:42:11;6.43;;;4.50;;
5833;SDS011;2943;48.012;10.968;2023-02-01T13:44:44;9.33;;;4.93;;
5833;SDS011;2943;48.012;10.968;2023-02-01T13:47:17;7.70;;;4.60;;
5833;SDS011;2943;48.012;10.968;2023-02-01T13:49:52;7.40;;;4.80;;
5833;SDS011;2943;48.012;10.968;2023-02-01T13:52:29;11.10;;;4.90;;
5833;SDS011;2943;48.012;10.968;2023-02-01T13:55:03;7.50;;;4.20;;
5833;SDS011;2943;48.012;10.968;2023-02-01T13:58:00;8.87;;;4.97;;
5833;SDS011;2943;48.012;10.968;2023-02-01T14:00:32;8.07;;;5.27;;
5833;SDS011;2943;48.012;10.968;2023-02-01T14:05:59;9.13;;;4.47;;
5833;SDS011;2943;48.012;10.968;2023-02-01T14:08:41;8.33;;;4.83;;
5833;SDS011;2943;48.012;10.968;2023-02-01T14:23:23;6.83;;;4.87;;
5833;SDS011;2943;48.012;10.968;2023-02-01T14:26:01;9.20;;;5.50;;
5833;SDS011;2943;48.012;10.968;2023-02-01T14:28:34;7.87;;;5.17;;
5833;SDS011;2943;48.012;10.968;2023-02-01T14:31:13;7.27;;;4.70;;
5833;SDS011;2943;48.012;10.968;2023-02-01T14:33:45;7.30;;;5.20;;
5833;SDS011;2943;48.012;10.968;2023-02-01T14:36:13;8.60;;;6.57;;
5833;SDS011;2943;48.012;10.968;2023-02-01T14:38:47;6.70;;;5.03;;
5833;SDS011;2943;48.012;10.968;2023-02-01T14:41:24;8.90;;;5.60;;
5833;SDS011;2943;48.012;10.968;2023-02-01T14:47:08;10.53;;;5.67;;
5833;SDS011;2943;48.012;10.968;2023-02-01T14:50:04;7.60;;;5.00;;
5833;SDS011;2943;48.012;10.968;2023-02-01T14:52:59;6.87;;;5.40;;
5833;SDS011;2943;48.012;10.968;2023-02-01T14:55:42;10.60;;;6.40;;
5833;SDS011;2943;48.012;10.968;2023-02-01T14:58:16;8.57;;;6.00;;
5833;SDS011;2943;48.012;10.968;2023-02-01T15:00:51;9.20;;;5.10;;
5833;SDS011;2943;48.012;10.968;2023-02-01T15:03:34;12.07;;;5.20;;
5833;SDS011;2943;48.012;10.968;2023-02-01T15:06:23;11.80;;;6.50;;
5833;SDS011;2943;48.012;10.968;2023-02-01T15:08:54;12.10;;;6.20;;
5833;SDS011;2943;48.012;10.968;2023-02-01T15:11:24;8.60;;;5.50;;
5833;SDS011;2943;48.012;10.968;2023-02-01T15:13:52;8.50;;;4.90;;
5833;SDS011;2943;48.012;10.968;2023-02-01T15:16:21;10.20;;;6.20;;
5833;SDS011;2943;48.012;10.968;2023-02-01T15:18:49;6.97;;;4.57;;
5833;SDS011;2943;48.012;10.968;2023-02-01T15:21:17;8.83;;;5.00;;
5833;SDS011;2943;48.012;10.968;2023-02-01T15:23:46;6.50;;;4.30;;
5833;SDS011;2943;48.012;10.968;2023-02-01T15:26:26;9.60;;;4.20;;
5833;SDS011;2943;48.012;10.968;2023-02-01T15:28:56;5.70;;;4.40;;
5833;SDS011;2943;48.012;10.968;2023-02-01T15:31:33;6.90;;;4.77;;
5833;SDS011;2943;48.012;10.968;2023-02-01T15:34:01;16.70;;;5.23;;
5833;SDS011;2943;48.012;10.968;2023-02-01T15:36:28;12.00;;;5.40;;
5833;SDS011;2943;48.012;10.968;2023-02-01T15:41:51;14.37;;;6.07;;
5833;SDS011;2943;48.012;10.968;2023-02-01T15:44:22;7.23;;;4.23;;
5833;SDS011;2943;48.012;10.968;2023-02-01T15:46:56;7.30;;;5.37;;
5833;SDS011;2943;48.012;10.968;2023-02-01T15:49:25;8.90;;;5.20;;
5833;SDS011;2943;48.012;10.968;2023-02-01T15:51:54;14.97;;;6.60;;
5833;SDS011;2943;48.012;10.968;2023-02-01T15:54:24;13.80;;;5.40;;
5833;SDS011;2943;48.012;10.968;2023-02-01T15:56:56;10.83;;;5.00;;
5833;SDS011;2943;48.012;10.968;2023-02-01T15:59:29;8.90;;;4.43;;
5833;SDS011;2943;48.012;10.968;2023-02-01T16:02:02;9.47;;;4.73;;
5833;SDS011;2943;48.012;10.968;2023-02-01T16:04:29;7.07;;;4.57;;
5833;SDS011;2943;48.012;10.968;2023-02-01T16:06:58;9.07;;;4.50;;
5833;SDS011;2943;48.012;10.968;2023-02-01T16:09:36;8.50;;;4.40;;